Time;durP1;ratioP1;P1;durP2;ratioP2;P2;SDS_P1;SDS_P2;PMS_P1;PMS_P2;Temp;Humidity;BMP_temperature;BMP_pressure;BME280_temperature;BME280_humidity;BME280_pressure;Samples;Min_cycle;Max_cycle;Signal;HPM_P1;HPM_P2
2022/12/10 00:02:05;;;;;;;35.22;14.90;;;;;;;;;;4978477;28;20030;-86
2022/12/10 00:04:31;;;;;;;29.23;11.88;;;;;;;;;;4980698;28;20369;-83
2022/12/10 00:06:56;;;;;;;39.65;14.45;;;;;;;;;;4980349;28;20109;-84
2022/12/10 00:09:21;;;;;;;32.42;13.50;;;;;;;;;;4980274;28;20372;-84
2022/12/10 00:11:47;;;;;;;40.40;15.68;;;;;;;;;;4980116;28;20027;-84
2022/12/10 00:14:14;;;;;;;29.63;13.02;;;;;;;;;;4980919;28;20030;-84
2022/12/10 00:16:40;;;;;;;34.28;11.98;;;;;;;;;;4978392;28;20424;-83
2022/12/10 00:19:08;;;;;;;34.40;14.45;;;;;;;;;;4978966;28;20077;-86
2022/12/10 00:21:34;;;;;;;29.98;12.93;;;;;;;;;;4978142;28;20025;-85
2022/12/10 00:24:01;;;;;;;35.20;14.15;;;;;;;;;;4978635;28;20133;-85
2022/12/10 00:26:29;;;;;;;34.45;13.65;;;;;;;;;;4979985;28;20054;-84
2022/12/10 00:28:56;;;;;;;35.60;14.25;;;;;;;;;;4978670;28;20038;-84
2022/12/10 00:31:24;;;;;;;35.42;14.70;;;;;;;;;;4980035;28;20035;-85
2022/12/10 00:33:50;;;;;;;34.40;13.02;;;;;;;;;;4979629;28;20030;-85
2022/12/10 00:36:20;;;;;;;33.90;15.15;;;;;;;;;;4980335;28;20161;-83
2022/12/10 00:38:46;;;;;;;36.20;13.68;;;;;;;;;;4980772;28;20458;-84
2022/12/10 00:41:12;;;;;;;33.25;13.70;;;;;;;;;;4983997;28;20030;-84
2022/12/10 00:43:38;;;;;;;23.13;10.30;;;;;;;;;;4981746;28;20392;-84
2022/12/10 00:46:04;;;;;;;20.38;9.73;;;;;;;;;;4979702;28;20109;-86
2022/12/10 00:48:30;;;;;;;28.75;11.95;;;;;;;;;;4978652;28;20037;-84
2022/12/10 00:51:00;;;;;;;30.77;13.05;;;;;;;;;;4979296;28;20027;-86
2022/12/10 00:53:27;;;;;;;28.98;13.00;;;;;;;;;;4979721;28;20026;-85
2022/12/10 00:55:53;;;;;;;32.20;13.32;;;;;;;;;;4977954;28;20039;-85
2022/12/10 00:58:19;;;;;;;36.65;12.65;;;;;;;;;;4978783;28;20030;-86
2022/12/10 01:00:44;;;;;;;32.60;13.75;;;;;;;;;;4976429;28;20027;-84
2022/12/10 01:03:10;;;;;;;28.25;11.48;;;;;;;;;;4979171;28;20054;-84
2022/12/10 01:05:35;;;;;;;32.88;12.95;;;;;;;;;;4979147;28;20029;-86
2022/12/10 01:08:00;;;;;;;16.15;7.88;;;;;;;;;;4979284;28;20026;-83
2022/12/10 01:10:25;;;;;;;28.65;11.52;;;;;;;;;;4977684;28;20027;-84
2022/12/10 01:12:51;;;;;;;29.80;12.20;;;;;;;;;;4977238;28;20030;-84
2022/12/10 01:15:16;;;;;;;33.33;13.32;;;;;;;;;;4978707;28;20027;-84
2022/12/10 01:17:41;;;;;;;29.77;12.80;;;;;;;;;;4977563;28;20026;-85
2022/12/10 01:20:07;;;;;;;24.80;10.93;;;;;;;;;;4979330;28;20161;-85
2022/12/10 01:22:32;;;;;;;30.10;11.95;;;;;;;;;;4978229;28;20035;-85
2022/12/10 01:24:57;;;;;;;30.95;12.15;;;;;;;;;;4978042;28;20030;-84
2022/12/10 01:27:23;;;;;;;28.27;11.68;;;;;;;;;;4976967;28;20034;-84
2022/12/10 01:29:48;;;;;;;23.92;10.18;;;;;;;;;;4977996;28;20026;-84
2022/12/10 01:32:13;;;;;;;25.60;10.32;;;;;;;;;;4976468;28;20037;-82
2022/12/10 01:34:39;;;;;;;32.65;11.40;;;;;;;;;;4977101;28;20078;-83
2022/12/10 01:37:04;;;;;;;19.63;8.13;;;;;;;;;;4978041;28;20062;-85
2022/12/10 01:39:30;;;;;;;18.13;7.82;;;;;;;;;;4976048;28;20051;-85
2022/12/10 01:41:58;;;;;;;25.10;7.93;;;;;;;;;;4977882;28;20496;-86
2022/12/10 01:44:23;;;;;;;29.70;10.82;;;;;;;;;;4978374;28;20034;-82
2022/12/10 01:46:54;;;;;;;25.80;10.57;;;;;;;;;;4976623;28;20026;-85
2022/12/10 01:49:22;;;;;;;25.70;9.68;;;;;;;;;;4978271;28;20256;-85
2022/12/10 01:51:53;;;;;;;29.13;11.88;;;;;;;;;;4978332;28;20027;-82
2022/12/10 01:54:23;;;;;;;37.53;12.90;;;;;;;;;;4977461;28;20023;-83
2022/12/10 01:56:54;;;;;;;25.33;10.85;;;;;;;;;;4979921;28;20031;-82
2022/12/10 01:59:19;;;;;;;25.23;10.45;;;;;;;;;;4978087;28;20054;-84
2022/12/10 02:01:56;;;;;;;28.15;11.85;;;;;;;;;;4975510;28;20023;-83
2022/12/10 02:04:37;;;;;;;21.35;9.00;;;;;;;;;;4975182;28;20376;-84
2022/12/10 02:07:08;;;;;;;20.25;8.38;;;;;;;;;;4977069;28;20023;-83
2022/12/10 02:10:02;;;;;;;31.38;11.50;;;;;;;;;;4977659;28;20043;-85
2022/12/10 02:12:51;;;;;;;23.42;9.77;;;;;;;;;;4978863;28;20034;-84
2022/12/10 02:15:27;;;;;;;31.30;11.43;;;;;;;;;;4983150;28;20019;-84
2022/12/10 02:17:57;;;;;;;19.35;8.63;;;;;;;;;;4981892;28;20034;-83
2022/12/10 02:20:43;;;;;;;19.42;9.18;;;;;;;;;;4982460;28;20031;-83
2022/12/10 02:23:22;;;;;;;30.52;11.50;;;;;;;;;;4983624;28;20034;-83
2022/12/10 02:25:56;;;;;;;28.67;11.77;;;;;;;;;;4983816;28;20038;-83
2022/12/10 02:28:24;;;;;;;;;;;;;;;;;;4981060;28;20423;-83
2022/12/10 02:30:51;;;;;;;25.45;8.77;;;;;;;;;;4981606;28;20435;-83
2022/12/10 02:33:19;;;;;;;27.38;9.85;;;;;;;;;;4981013;28;20122;-84
2022/12/10 02:35:49;;;;;;;24.38;10.23;;;;;;;;;;4981435;28;20113;-85
2022/12/10 02:38:20;;;;;;;21.15;9.57;;;;;;;;;;4979920;28;20035;-84
2022/12/10 02:40:50;;;;;;;20.48;8.60;;;;;;;;;;4981057;28;20038;-84
2022/12/10 02:43:16;;;;;;;25.35;10.75;;;;;;;;;;4981205;28;20388;-84
2022/12/10 02:45:43;;;;;;;25.23;9.95;;;;;;;;;;4980571;28;20113;-81
2022/12/10 02:48:09;;;;;;;24.15;8.52;;;;;;;;;;4982367;28;20059;-82
2022/12/10 02:50:35;;;;;;;25.65;9.68;;;;;;;;;;4980646;28;20070;-81
2022/12/10 02:53:00;;;;;;;22.58;10.02;;;;;;;;;;4982035;28;20038;-82
2022/12/10 02:55:25;;;;;;;25.92;10.23;;;;;;;;;;4981930;28;20027;-79
2022/12/10 02:58:21;;;;;;;21.65;10.25;;;;;;;;;;4981859;28;20030;-79
2022/12/10 03:00:58;;;;;;;25.20;10.43;;;;;;;;;;4982205;28;20027;-83
2022/12/10 03:03:33;;;;;;;18.40;8.95;;;;;;;;;;4982015;28;20023;-84
2022/12/10 03:06:29;;;;;;;15.98;7.97;;;;;;;;;;4980614;28;20054;-83
2022/12/10 03:09:05;;;;;;;25.38;10.35;;;;;;;;;;4962102;28;20039;-82
2022/12/10 03:11:31;;;;;;;16.45;7.28;;;;;;;;;;4978813;28;20050;-84
2022/12/10 03:14:09;;;;;;;21.70;9.93;;;;;;;;;;4981278;28;20038;-84
2022/12/10 03:16:38;;;;;;;23.30;9.05;;;;;;;;;;4981091;28;20037;-83
2022/12/10 03:19:11;;;;;;;22.25;9.60;;;;;;;;;;4979741;28;20480;-85
2022/12/10 03:21:38;;;;;;;22.38;9.13;;;;;;;;;;4979145;28;20023;-84
2022/12/10 03:24:04;;;;;;;14.93;6.43;;;;;;;;;;4977542;28;20501;-83
2022/12/10 03:26:30;;;;;;;24.90;9.15;;;;;;;;;;4978579;28;20031;-85
2022/12/10 03:29:04;;;;;;;24.30;10.55;;;;;;;;;;4978911;28;20023;-82
2022/12/10 03:31:31;;;;;;;22.10;9.30;;;;;;;;;;4978674;28;20030;-83
2022/12/10 03:33:56;;;;;;;27.13;9.45;;;;;;;;;;4980027;28;20058;-85
2022/12/10 03:36:23;;;;;;;27.88;9.15;;;;;;;;;;4979194;28;20022;-84
2022/12/10 03:38:49;;;;;;;24.60;10.05;;;;;;;;;;4978598;28;20480;-85
2022/12/10 03:41:15;;;;;;;21.30;9.38;;;;;;;;;;4978192;28;20030;-85
2022/12/10 03:43:58;;;;;;;25.05;11.05;;;;;;;;;;4980317;28;20045;-83
2022/12/10 03:46:25;;;;;;;24.23;10.02;;;;;;;;;;4980404;28;20110;-84
2022/12/10 03:48:51;;;;;;;23.08;10.00;;;;;;;;;;4978378;28;20034;-85
2022/12/10 03:51:16;;;;;;;27.33;10.18;;;;;;;;;;4979661;28;20404;-84
2022/12/10 03:53:41;;;;;;;18.40;7.90;;;;;;;;;;4980374;28;20077;-84
2022/12/10 03:56:07;;;;;;;27.52;10.90;;;;;;;;;;4978428;28;20050;-83
2022/12/10 03:58:32;;;;;;;24.95;10.45;;;;;;;;;;4979323;28;20030;-85
2022/12/10 04:00:58;;;;;;;22.05;9.57;;;;;;;;;;4978584;28;20431;-86
2022/12/10 04:03:23;;;;;;;24.73;9.40;;;;;;;;;;4978565;28;20027;-83
2022/12/10 04:05:48;;;;;;;22.63;8.88;;;;;;;;;;4978211;28;20022;-83
2022/12/10 04:08:13;;;;;;;24.48;9.10;;;;;;;;;;4979128;28;20385;-85
2022/12/10 04:10:39;;;;;;;30.70;9.90;;;;;;;;;;4977729;28;20019;-83
2022/12/10 04:18:32;;;;;;;24.45;10.35;;;;;;;;;;4979685;28;20046;-83
2022/12/10 04:26:53;;;;;;;;;;;;;;;;;;4927112;28;20043;-83
2022/12/10 04:29:24;;;;;;;23.50;9.77;;;;;;;;;;4979018;28;19905;-84
2022/12/10 04:31:49;;;;;;;26.67;10.68;;;;;;;;;;4978159;28;20074;-83
2022/12/10 04:34:15;;;;;;;30.90;10.27;;;;;;;;;;4977131;28;20026;-83
2022/12/10 04:36:40;;;;;;;31.83;11.35;;;;;;;;;;4979222;28;20023;-85
2022/12/10 04:39:05;;;;;;;26.33;10.73;;;;;;;;;;4978385;28;20476;-85
2022/12/10 04:41:31;;;;;;;26.20;9.75;;;;;;;;;;4976778;28;20038;-84
2022/12/10 04:43:57;;;;;;;30.45;11.73;;;;;;;;;;4976368;28;20027;-84
2022/12/10 04:46:22;;;;;;;28.88;11.75;;;;;;;;;;4977534;28;20558;-83
2022/12/10 04:48:47;;;;;;;29.20;11.77;;;;;;;;;;4976739;28;20034;-83
2022/12/10 04:51:12;;;;;;;31.55;11.13;;;;;;;;;;4978080;28;20022;-85
2022/12/10 04:53:38;;;;;;;27.63;10.80;;;;;;;;;;4980550;28;20047;-84
2022/12/10 04:56:05;;;;;;;29.25;11.40;;;;;;;;;;4982481;28;20019;-82
2022/12/10 04:58:30;;;;;;;31.08;11.10;;;;;;;;;;4983756;28;20026;-83
2022/12/10 05:01:08;;;;;;;28.55;10.80;;;;;;;;;;4982019;28;20030;-85
2022/12/10 05:03:33;;;;;;;25.50;11.00;;;;;;;;;;4976168;28;20131;-84
2022/12/10 05:06:10;;;;;;;25.00;9.82;;;;;;;;;;4975946;28;20057;-84
2022/12/10 05:08:37;;;;;;;28.48;10.80;;;;;;;;;;4977107;28;20031;-83
2022/12/10 05:11:29;;;;;;;26.20;10.45;;;;;;;;;;4976155;28;20042;-85
2022/12/10 05:13:58;;;;;;;25.98;10.30;;;;;;;;;;4975562;28;20093;-83
2022/12/10 05:16:26;;;;;;;31.75;9.60;;;;;;;;;;4976222;28;20459;-83
2022/12/10 05:18:53;;;;;;;28.48;10.60;;;;;;;;;;4976308;28;20057;-83
2022/12/10 05:21:20;;;;;;;29.30;11.27;;;;;;;;;;4977983;28;20484;-84
2022/12/10 05:23:48;;;;;;;33.75;11.77;;;;;;;;;;4976744;28;20034;-84
2022/12/10 05:26:16;;;;;;;33.83;11.75;;;;;;;;;;4977897;28;20070;-84
2022/12/10 05:29:01;;;;;;;29.50;11.55;;;;;;;;;;4977845;28;20027;-84
2022/12/10 05:31:28;;;;;;;22.13;9.27;;;;;;;;;;4976518;28;20039;-84
2022/12/10 05:33:55;;;;;;;29.20;10.15;;;;;;;;;;4978887;28;20105;-84
2022/12/10 05:36:23;;;;;;;26.98;9.25;;;;;;;;;;4978246;28;20110;-83
2022/12/10 05:38:49;;;;;;;31.70;10.27;;;;;;;;;;4977421;28;20473;-84
2022/12/10 05:41:20;;;;;;;27.33;11.63;;;;;;;;;;4977893;28;20065;-84
2022/12/10 05:43:46;;;;;;;32.53;11.60;;;;;;;;;;4978727;28;20543;-85
2022/12/10 05:46:14;;;;;;;28.05;10.35;;;;;;;;;;4979215;28;20408;-86
2022/12/10 05:48:40;;;;;;;31.27;10.30;;;;;;;;;;4977812;28;20470;-85
2022/12/10 05:51:07;;;;;;;32.92;11.77;;;;;;;;;;4979149;28;20022;-84
2022/12/10 05:53:34;;;;;;;21.30;8.20;;;;;;;;;;4975741;28;20037;-84
2022/12/10 05:56:05;;;;;;;31.65;11.90;;;;;;;;;;4975759;28;20103;-85
2022/12/10 05:58:31;;;;;;;29.80;11.15;;;;;;;;;;4977311;28;20061;-85
2022/12/10 06:00:57;;;;;;;27.23;10.30;;;;;;;;;;4976175;28;20027;-84
2022/12/10 06:03:23;;;;;;;28.90;9.63;;;;;;;;;;4977383;28;20034;-84
2022/12/10 06:05:48;;;;;;;27.05;10.27;;;;;;;;;;4977249;28;20023;-85
2022/12/10 06:08:14;;;;;;;29.80;11.88;;;;;;;;;;4978010;28;20030;-83
2022/12/10 06:10:39;;;;;;;31.35;10.88;;;;;;;;;;4977978;28;20046;-84
2022/12/10 06:13:04;;;;;;;33.65;11.07;;;;;;;;;;4976226;28;20029;-84
2022/12/10 06:15:31;;;;;;;27.67;10.20;;;;;;;;;;4976464;28;20473;-84
2022/12/10 06:17:56;;;;;;;25.92;9.63;;;;;;;;;;4976535;28;20018;-84
2022/12/10 06:20:23;;;;;;;26.60;10.45;;;;;;;;;;4976418;28;20090;-85
2022/12/10 06:22:48;;;;;;;30.90;11.85;;;;;;;;;;4977730;28;20034;-83
2022/12/10 06:25:14;;;;;;;30.88;11.35;;;;;;;;;;4977565;28;20030;-85
2022/12/10 06:27:39;;;;;;;24.27;10.32;;;;;;;;;;4976742;28;20035;-86
2022/12/10 06:30:05;;;;;;;32.08;11.90;;;;;;;;;;4977691;28;20026;-85
2022/12/10 06:32:31;;;;;;;26.63;10.30;;;;;;;;;;4976038;28;20109;-84
2022/12/10 06:34:56;;;;;;;23.92;9.15;;;;;;;;;;4977835;28;20104;-83
2022/12/10 06:37:21;;;;;;;27.73;11.68;;;;;;;;;;4975839;28;20054;-83
2022/12/10 06:39:46;;;;;;;22.05;9.07;;;;;;;;;;4975875;28;20049;-85
2022/12/10 06:42:12;;;;;;;22.63;9.32;;;;;;;;;;4977836;28;20491;-84
2022/12/10 06:44:37;;;;;;;26.98;9.77;;;;;;;;;;4976788;28;20035;-83
2022/12/10 06:47:02;;;;;;;26.52;11.45;;;;;;;;;;4978000;28;20503;-83
2022/12/10 06:49:28;;;;;;;30.52;11.77;;;;;;;;;;4976181;28;20062;-84
2022/12/10 06:51:53;;;;;;;28.67;10.90;;;;;;;;;;4977527;28;20118;-83
2022/12/10 06:54:18;;;;;;;29.60;10.95;;;;;;;;;;4976212;28;20053;-83
2022/12/10 06:56:43;;;;;;;27.10;10.43;;;;;;;;;;4977912;28;20034;-84
2022/12/10 06:59:09;;;;;;;32.38;10.90;;;;;;;;;;4977920;28;20027;-84
2022/12/10 07:01:34;;;;;;;31.65;11.43;;;;;;;;;;4980413;28;20023;-82
2022/12/10 07:03:59;;;;;;;31.52;11.45;;;;;;;;;;4979641;28;20114;-84
2022/12/10 07:06:28;;;;;;;31.75;10.63;;;;;;;;;;4979024;28;20042;-83
2022/12/10 07:08:54;;;;;;;31.00;11.20;;;;;;;;;;4981092;28;20027;-84
2022/12/10 07:11:22;;;;;;;28.98;10.70;;;;;;;;;;4980207;28;20035;-84
2022/12/10 07:13:47;;;;;;;30.10;11.65;;;;;;;;;;4979489;28;20468;-84
2022/12/10 07:16:19;;;;;;;32.08;12.10;;;;;;;;;;4980115;28;20023;-85
2022/12/10 07:18:45;;;;;;;23.45;9.05;;;;;;;;;;4979824;28;20489;-85
2022/12/10 07:21:22;;;;;;;33.38;11.38;;;;;;;;;;4979056;28;20062;-84
2022/12/10 07:23:48;;;;;;;32.38;10.80;;;;;;;;;;4980707;28;20026;-84
2022/12/10 07:26:14;;;;;;;31.02;11.55;;;;;;;;;;4980239;28;20066;-84
2022/12/10 07:28:39;;;;;;;34.80;11.18;;;;;;;;;;4979054;28;20038;-84
2022/12/10 07:31:07;;;;;;;34.65;12.77;;;;;;;;;;4979492;28;20125;-83
2022/12/10 07:33:32;;;;;;;28.33;10.88;;;;;;;;;;4978814;28;20033;-85
2022/12/10 07:35:58;;;;;;;29.05;10.55;;;;;;;;;;4980801;28;20027;-84
2022/12/10 07:38:24;;;;;;;38.58;13.52;;;;;;;;;;4978626;28;20023;-84
2022/12/10 07:40:50;;;;;;;31.58;11.40;;;;;;;;;;4979864;28;20026;-85
2022/12/10 07:43:16;;;;;;;29.15;10.57;;;;;;;;;;4987016;28;20026;-83
2022/12/10 07:45:41;;;;;;;34.97;11.93;;;;;;;;;;4987075;28;20023;-84
2022/12/10 07:48:06;;;;;;;31.48;12.23;;;;;;;;;;4987456;28;20025;-83
2022/12/10 07:50:32;;;;;;;33.50;11.88;;;;;;;;;;4986573;28;20027;-84
2022/12/10 07:52:58;;;;;;;36.05;12.68;;;;;;;;;;4978079;28;20077;-83
2022/12/10 07:55:23;;;;;;;34.63;13.25;;;;;;;;;;4978586;28;20118;-84
2022/12/10 07:57:48;;;;;;;32.72;12.32;;;;;;;;;;4977766;28;20114;-83
2022/12/10 08:00:14;;;;;;;30.38;11.05;;;;;;;;;;4978534;28;20042;-83
2022/12/10 08:02:39;;;;;;;18.55;7.15;;;;;;;;;;4979003;28;20058;-82
2022/12/10 08:05:05;;;;;;;17.48;7.38;;;;;;;;;;4978011;28;20034;-85
2022/12/10 08:07:30;;;;;;;27.83;9.70;;;;;;;;;;4978964;28;20508;-85
2022/12/10 08:09:55;;;;;;;35.45;11.95;;;;;;;;;;4978927;28;20030;-82
2022/12/10 08:12:23;;;;;;;36.10;12.80;;;;;;;;;;4978363;28;20035;-84
2022/12/10 08:14:48;;;;;;;36.72;12.98;;;;;;;;;;4976695;28;20073;-84
2022/12/10 08:17:14;;;;;;;32.65;12.00;;;;;;;;;;4978854;28;20031;-84
2022/12/10 08:19:39;;;;;;;33.38;11.85;;;;;;;;;;4979028;28;20033;-84
2022/12/10 08:22:04;;;;;;;41.72;13.30;;;;;;;;;;4977195;28;20027;-85
2022/12/10 08:24:30;;;;;;;35.35;11.93;;;;;;;;;;4979038;28;20026;-83
2022/12/10 08:26:55;;;;;;;30.80;11.15;;;;;;;;;;4977551;28;20118;-85
2022/12/10 08:29:20;;;;;;;34.45;12.50;;;;;;;;;;4978286;28;20484;-84
2022/12/10 08:31:46;;;;;;;38.97;12.35;;;;;;;;;;4979442;28;20213;-83
2022/12/10 08:34:17;;;;;;;34.75;12.30;;;;;;;;;;4979254;28;20496;-85
2022/12/10 08:36:45;;;;;;;28.85;10.95;;;;;;;;;;4978757;28;20033;-82
2022/12/10 08:39:14;;;;;;;36.00;13.82;;;;;;;;;;4978881;28;20026;-82
2022/12/10 08:41:41;;;;;;;31.00;12.48;;;;;;;;;;4976969;28;20027;-83
2022/12/10 08:44:06;;;;;;;35.05;11.80;;;;;;;;;;4977113;28;20030;-84
2022/12/10 08:46:31;;;;;;;36.25;13.35;;;;;;;;;;4979443;28;20118;-85
2022/12/10 08:48:57;;;;;;;41.10;12.70;;;;;;;;;;4979436;28;20109;-84
2022/12/10 08:51:22;;;;;;;25.42;9.65;;;;;;;;;;4977566;28;20027;-84
2022/12/10 08:53:48;;;;;;;31.50;11.90;;;;;;;;;;4980243;28;20027;-85
2022/12/10 08:56:13;;;;;;;30.13;11.85;;;;;;;;;;4982144;28;20085;-83
2022/12/10 08:58:39;;;;;;;34.45;12.98;;;;;;;;;;4982804;28;20053;-84
2022/12/10 09:01:09;;;;;;;22.77;9.20;;;;;;;;;;4981167;28;20023;-85
2022/12/10 09:03:35;;;;;;;32.30;10.98;;;;;;;;;;4982626;28;20432;-84
2022/12/10 09:06:06;;;;;;;32.50;12.25;;;;;;;;;;4981139;28;20031;-83
2022/12/10 09:08:38;;;;;;;23.45;9.80;;;;;;;;;;4982850;28;20034;-84
2022/12/10 09:11:26;;;;;;;24.83;9.65;;;;;;;;;;4981194;28;20035;-85
2022/12/10 09:13:52;;;;;;;26.58;10.73;;;;;;;;;;4982024;28;20023;-84
2022/12/10 09:16:20;;;;;;;30.23;11.15;;;;;;;;;;4984932;28;20138;-84
2022/12/10 09:18:45;;;;;;;31.67;11.90;;;;;;;;;;4982947;28;20139;-85
2022/12/10 09:21:16;;;;;;;32.85;12.90;;;;;;;;;;4981641;28;20056;-83
2022/12/10 09:23:42;;;;;;;34.22;11.95;;;;;;;;;;4982026;28;20118;-85
2022/12/10 09:26:10;;;;;;;32.08;12.65;;;;;;;;;;4983923;28;20026;-83
2022/12/10 09:28:36;;;;;;;34.67;11.85;;;;;;;;;;4982465;28;20031;-84
2022/12/10 09:31:04;;;;;;;31.40;11.25;;;;;;;;;;4982646;28;20023;-82
2022/12/10 09:33:30;;;;;;;28.85;11.18;;;;;;;;;;4981509;28;20027;-84
2022/12/10 09:35:56;;;;;;;35.08;12.65;;;;;;;;;;4983975;28;20035;-84
2022/12/10 09:38:22;;;;;;;28.40;11.45;;;;;;;;;;4983057;28;20057;-84
2022/12/10 09:40:56;;;;;;;36.03;12.23;;;;;;;;;;4981886;28;20473;-84
2022/12/10 09:43:28;;;;;;;;;;;;;;;;;;4983995;28;20029;-84
2022/12/10 09:46:21;;;;;;;30.83;11.20;;;;;;;;;;4981028;28;19917;-84
2022/12/10 09:49:01;;;;;;;31.70;12.73;;;;;;;;;;4981968;28;20027;-84
2022/12/10 09:51:33;;;;;;;28.58;11.68;;;;;;;;;;4982659;28;20078;-85
2022/12/10 09:54:01;;;;;;;31.40;11.82;;;;;;;;;;4982279;28;20023;-84
2022/12/10 09:56:32;;;;;;;37.67;12.93;;;;;;;;;;4980947;28;20098;-83
2022/12/10 09:59:02;;;;;;;27.40;10.98;;;;;;;;;;4981805;28;20078;-84
2022/12/10 10:01:29;;;;;;;34.53;13.07;;;;;;;;;;4982230;28;20089;-84
2022/12/10 10:03:55;;;;;;;26.10;11.20;;;;;;;;;;4980631;28;20037;-84
2022/12/10 10:06:22;;;;;;;27.67;9.75;;;;;;;;;;4981244;28;20038;-86
2022/12/10 10:08:53;;;;;;;31.85;11.98;;;;;;;;;;4980979;28;20595;-84
2022/12/10 10:11:22;;;;;;;29.33;11.68;;;;;;;;;;4983300;28;20022;-83
2022/12/10 10:13:54;;;;;;;31.02;12.35;;;;;;;;;;4982957;28;20033;-84
2022/12/10 10:16:23;;;;;;;34.05;12.73;;;;;;;;;;4983451;28;20085;-85
2022/12/10 10:18:57;;;;;;;37.00;11.35;;;;;;;;;;4983475;28;20030;-85
2022/12/10 10:21:35;;;;;;;31.75;12.10;;;;;;;;;;4981400;28;20023;-84
2022/12/10 10:24:02;;;;;;;25.63;10.70;;;;;;;;;;4982768;28;20023;-85
2022/12/10 10:26:28;;;;;;;28.20;11.45;;;;;;;;;;4982683;28;20480;-84
2022/12/10 10:28:59;;;;;;;28.52;11.50;;;;;;;;;;4983282;28;20023;-84
2022/12/10 10:31:28;;;;;;;30.17;12.85;;;;;;;;;;4981371;28;20133;-85
2022/12/10 10:34:05;;;;;;;27.75;11.85;;;;;;;;;;4984385;28;20027;-85
2022/12/10 10:36:34;;;;;;;30.58;12.02;;;;;;;;;;4986120;28;20047;-85
2022/12/10 10:39:30;;;;;;;29.67;12.48;;;;;;;;;;4984870;28;20050;-85
2022/12/10 10:41:57;;;;;;;28.05;10.80;;;;;;;;;;4964970;28;20134;-85
2022/12/10 10:44:26;;;;;;;28.35;12.45;;;;;;;;;;4985931;28;20106;-85
2022/12/10 10:46:54;;;;;;;23.48;9.30;;;;;;;;;;4986931;28;20027;-81
2022/12/10 10:49:24;;;;;;;26.40;11.40;;;;;;;;;;4986777;28;20536;-85
2022/12/10 10:51:51;;;;;;;32.70;11.68;;;;;;;;;;4987816;28;20365;-84
2022/12/10 10:54:42;;;;;;;29.42;11.85;;;;;;;;;;4984500;28;20026;-84
2022/12/10 10:57:39;;;;;;;30.70;11.68;;;;;;;;;;4985914;28;20488;-83
2022/12/10 11:00:22;;;;;;;24.02;11.85;;;;;;;;;;4951966;28;20046;-83
2022/12/10 11:02:47;;;;;;;28.17;12.48;;;;;;;;;;4983031;28;20046;-85
2022/12/10 11:05:25;;;;;;;37.17;12.20;;;;;;;;;;4984300;28;20062;-85
2022/12/10 11:08:07;;;;;;;29.08;12.07;;;;;;;;;;4985660;28;20081;-84
2022/12/10 11:10:33;;;;;;;28.15;11.73;;;;;;;;;;4984849;28;20030;-84
2022/12/10 11:13:06;;;;;;;25.80;11.20;;;;;;;;;;4986291;28;20023;-84
2022/12/10 11:15:40;;;;;;;25.48;11.02;;;;;;;;;;4987490;28;20050;-84
2022/12/10 11:18:36;;;;;;;29.00;10.95;;;;;;;;;;4987120;28;20098;-84
2022/12/10 11:21:16;;;;;;;26.13;10.68;;;;;;;;;;4974955;28;20039;-85
2022/12/10 11:23:46;;;;;;;25.20;11.27;;;;;;;;;;4987551;28;20093;-83
2022/12/10 11:26:30;;;;;;;30.90;12.35;;;;;;;;;;4986385;28;20476;-85
2022/12/10 11:29:24;;;;;;;29.23;12.02;;;;;;;;;;4985748;28;20066;-84
2022/12/10 11:32:11;;;;;;;24.92;11.75;;;;;;;;;;4984987;28;20091;-87
2022/12/10 11:34:46;;;;;;;22.60;10.27;;;;;;;;;;4989304;28;20118;-83
2022/12/10 11:37:36;;;;;;;23.83;9.68;;;;;;;;;;4986095;28;20369;-83
2022/12/10 11:40:37;;;;;;;24.02;11.35;;;;;;;;;;4985862;28;20026;-84
2022/12/10 11:43:18;;;;;;;22.15;10.27;;;;;;;;;;4985079;28;20038;-83
2022/12/10 11:46:05;;;;;;;17.67;8.13;;;;;;;;;;4983828;28;20034;-83
2022/12/10 11:48:47;;;;;;;25.05;10.52;;;;;;;;;;4983794;28;20066;-83
2022/12/10 11:51:40;;;;;;;18.67;10.25;;;;;;;;;;4983728;28;20034;-83
2022/12/10 11:54:26;;;;;;;26.27;12.07;;;;;;;;;;4983305;28;20472;-83
2022/12/10 11:57:01;;;;;;;21.35;9.50;;;;;;;;;;4982171;28;20022;-82
2022/12/10 11:59:59;;;;;;;19.48;9.15;;;;;;;;;;4981232;28;20053;-84
2022/12/10 12:02:52;;;;;;;21.80;9.05;;;;;;;;;;4981805;28;20030;-82
2022/12/10 12:05:45;;;;;;;27.02;10.90;;;;;;;;;;4982297;28;20030;-83
2022/12/10 12:08:38;;;;;;;22.10;10.27;;;;;;;;;;4980545;28;20019;-83
2022/12/10 12:11:30;;;;;;;21.88;10.45;;;;;;;;;;4981479;28;20055;-83
2022/12/10 12:14:04;;;;;;;20.67;9.70;;;;;;;;;;4981484;28;20094;-83
2022/12/10 12:16:39;;;;;;;;;;;;;;;;;;4980310;28;20034;-82
2022/12/10 12:19:14;;;;;;;21.67;8.70;;;;;;;;;;4980816;28;19917;-82
2022/12/10 12:21:40;;;;;;;17.10;8.82;;;;;;;;;;4982181;28;20019;-84
2022/12/10 12:24:15;;;;;;;22.27;10.27;;;;;;;;;;4980388;28;20046;-83
2022/12/10 12:26:51;;;;;;;21.42;9.93;;;;;;;;;;4982063;28;20037;-83
2022/12/10 12:29:34;;;;;;;18.83;9.30;;;;;;;;;;4981459;28;20495;-83
2022/12/10 12:32:11;;;;;;;16.48;7.35;;;;;;;;;;4981337;28;20031;-83
2022/12/10 12:34:49;;;;;;;21.33;9.32;;;;;;;;;;4980411;28;20417;-84
2022/12/10 12:37:18;;;;;;;21.98;9.52;;;;;;;;;;4981771;28;20085;-83
2022/12/10 12:39:48;;;;;;;18.58;9.25;;;;;;;;;;4980652;28;20027;-82
2022/12/10 12:42:24;;;;;;;26.42;10.55;;;;;;;;;;4980604;28;20030;-84
2022/12/10 12:45:16;;;;;;;20.13;9.35;;;;;;;;;;4979245;28;20037;-83
2022/12/10 12:47:48;;;;;;;15.65;6.65;;;;;;;;;;4977763;28;20054;-83
2022/12/10 12:50:29;;;;;;;21.98;9.32;;;;;;;;;;4977825;28;20552;-84
2022/12/10 12:52:57;;;;;;;21.10;9.77;;;;;;;;;;4979394;28;20034;-83
2022/12/10 12:55:32;;;;;;;17.50;8.85;;;;;;;;;;4977777;28;20030;-82
2022/12/10 12:58:24;;;;;;;11.02;5.82;;;;;;;;;;4979238;28;20030;-83
2022/12/10 13:00:53;;;;;;;19.02;9.70;;;;;;;;;;4980422;28;20037;-85
2022/12/10 13:03:28;;;;;;;16.77;8.55;;;;;;;;;;4979302;28;20086;-84
2022/12/10 13:05:54;;;;;;;19.15;8.50;;;;;;;;;;4979807;28;20018;-84
2022/12/10 13:08:19;;;;;;;16.65;8.25;;;;;;;;;;4978511;28;20076;-84
2022/12/10 13:10:58;;;;;;;16.83;8.57;;;;;;;;;;4979417;28;20031;-83
2022/12/10 13:13:25;;;;;;;18.40;8.95;;;;;;;;;;4979775;28;20260;-83
2022/12/10 13:15:51;;;;;;;17.05;7.20;;;;;;;;;;4977988;28;20515;-82
2022/12/10 13:18:18;;;;;;;18.63;9.25;;;;;;;;;;4978953;28;20035;-82
2022/12/10 13:20:46;;;;;;;19.38;8.80;;;;;;;;;;4977811;28;20443;-82
2022/12/10 13:23:23;;;;;;;16.63;8.52;;;;;;;;;;4978394;28;20031;-82
2022/12/10 13:25:49;;;;;;;11.30;5.95;;;;;;;;;;4978562;28;20023;-81
2022/12/10 13:28:33;;;;;;;18.20;8.82;;;;;;;;;;4977461;28;20046;-83
2022/12/10 13:31:16;;;;;;;17.10;8.23;;;;;;;;;;4978315;28;20031;-81
2022/12/10 13:33:59;;;;;;;17.70;8.30;;;;;;;;;;4978513;28;20034;-82
2022/12/10 13:36:35;;;;;;;17.83;8.27;;;;;;;;;;4977617;28;20026;-83
2022/12/10 13:39:03;;;;;;;16.92;7.53;;;;;;;;;;4979054;28;20054;-82
2022/12/10 13:44:55;;;;;;;16.30;8.70;;;;;;;;;;4979470;28;20090;-82
2022/12/10 13:47:26;;;;;;;20.42;7.68;;;;;;;;;;4939511;28;20038;-83
2022/12/10 13:49:59;;;;;;;15.95;6.72;;;;;;;;;;4979518;28;20109;-83
2022/12/10 13:52:48;;;;;;;13.85;6.60;;;;;;;;;;4978940;28;20031;-82
2022/12/10 13:55:37;;;;;;;6.22;4.00;;;;;;;;;;4976797;28;20072;-82
2022/12/10 13:58:26;;;;;;;16.88;8.18;;;;;;;;;;4980446;28;20050;-82
2022/12/10 14:01:15;;;;;;;15.32;7.05;;;;;;;;;;4979726;28;20030;-84
2022/12/10 14:03:57;;;;;;;16.77;8.57;;;;;;;;;;4978511;28;20031;-83
2022/12/10 14:06:24;;;;;;;14.27;6.70;;;;;;;;;;4977997;28;20031;-83
2022/12/10 14:09:04;;;;;;;14.30;6.85;;;;;;;;;;4980838;28;20034;-82
2022/12/10 14:11:34;;;;;;;14.30;7.32;;;;;;;;;;4981434;28;20026;-82
2022/12/10 14:14:01;;;;;;;19.20;8.32;;;;;;;;;;4982671;28;20031;-83
2022/12/10 14:16:30;;;;;;;14.82;6.85;;;;;;;;;;4982882;28;20396;-82
2022/12/10 14:19:03;;;;;;;16.45;8.45;;;;;;;;;;4981717;28;20031;-83
2022/12/10 14:21:38;;;;;;;17.15;8.23;;;;;;;;;;4980480;28;20029;-83
2022/12/10 14:24:04;;;;;;;14.90;7.13;;;;;;;;;;4979832;28;20023;-83
2022/12/10 14:26:32;;;;;;;15.82;7.75;;;;;;;;;;4981252;28;20029;-83
2022/12/10 14:29:01;;;;;;;16.30;7.10;;;;;;;;;;4980884;28;20034;-84
2022/12/10 14:31:36;;;;;;;14.75;7.93;;;;;;;;;;4980949;28;20058;-83
2022/12/10 14:34:14;;;;;;;18.48;7.97;;;;;;;;;;4981285;28;20042;-83
2022/12/10 14:36:46;;;;;;;14.15;7.85;;;;;;;;;;4982344;28;20076;-81
2022/12/10 14:39:33;;;;;;;18.77;8.93;;;;;;;;;;4980568;28;20026;-84
2022/12/10 14:42:03;;;;;;;17.52;8.10;;;;;;;;;;4982103;28;20027;-82
2022/12/10 14:44:30;;;;;;;18.42;8.93;;;;;;;;;;4981467;28;20113;-83
2022/12/10 14:47:05;;;;;;;18.35;8.95;;;;;;;;;;4981305;28;20050;-82
2022/12/10 14:49:30;;;;;;;20.67;9.13;;;;;;;;;;4980015;28;20081;-82
2022/12/10 14:51:56;;;;;;;17.40;8.73;;;;;;;;;;4980685;28;20022;-83
2022/12/10 14:54:32;;;;;;;18.00;8.48;;;;;;;;;;4978655;28;20030;-83
2022/12/10 14:57:00;;;;;;;19.58;9.70;;;;;;;;;;4979675;28;20034;-82
2022/12/10 14:59:41;;;;;;;13.65;7.18;;;;;;;;;;4980661;28;20488;-82